Wetterdaten: Sonntag, 29.08.2010
Datum Zeit Temp. A. Feuchte A. Luftdruck Regen Wind Richtung Richtung Sonnenschein UV Solar Windben
29.08.2010 00:00 10,9 C 89 % 1015,2 hPa 0,0 mm 0,0 km/h (0 Bft) SW 225 0 min 0 UV-I 0 W/m 3,2 km/h (1 Bft)
29.08.2010 00:10 10,8 C 89 % 1015,2 hPa 0,0 mm 0,0 km/h (0 Bft) SW 225 0 min 0 UV-I 0 W/m 1,6 km/h (1 Bft)
29.08.2010 00:20 10,7 C 89 % 1015,1 hPa 0,0 mm 0,0 km/h (0 Bft) SW 225 0 min 0 UV-I 0 W/m 4,8 km/h (1 Bft)
29.08.2010 00:30 10,7 C 90 % 1015,1 hPa 0,0 mm 0,0 km/h (0 Bft) SW 225 0 min 0 UV-I 0 W/m 3,2 km/h (1 Bft)
29.08.2010 00:40 10,6 C 90 % 1015,1 hPa 0,0 mm 0,0 km/h (0 Bft) SW 225 0 min 0 UV-I 0 W/m 3,2 km/h (1 Bft)
29.08.2010 00:50 10,7 C 90 % 1015,0 hPa 0,0 mm 0,0 km/h (0 Bft) W-SW 247 0 min 0 UV-I 0 W/m 3,2 km/h (1 Bft)
29.08.2010 01:00 10,7 C 90 % 1014,9 hPa 0,0 mm 0,0 km/h (0 Bft) SW 225 0 min 0 UV-I 0 W/m 4,8 km/h (1 Bft)
29.08.2010 01:10 10,6 C 90 % 1014,8 hPa 0,0 mm 0,0 km/h (0 Bft) SW 225 0 min 0 UV-I 0 W/m 4,8 km/h (1 Bft)
29.08.2010 01:20 10,6 C 90 % 1014,8 hPa 0,0 mm 0,0 km/h (0 Bft) W-SW 247 0 min 0 UV-I 0 W/m 4,8 km/h (1 Bft)
29.08.2010 01:30 10,7 C 90 % 1014,7 hPa 0,0 mm 0,0 km/h (0 Bft) W-SW 247 0 min 0 UV-I 0 W/m 4,8 km/h (1 Bft)
29.08.2010 01:40 10,7 C 90 % 1014,6 hPa 0,0 mm 0,0 km/h (0 Bft) SW 225 0 min 0 UV-I 0 W/m 4,8 km/h (1 Bft)
29.08.2010 01:50 10,8 C 90 % 1014,5 hPa 0,0 mm 0,0 km/h (0 Bft) SW 225 0 min 0 UV-I 0 W/m 6,4 km/h (2 Bft)
29.08.2010 02:00 10,9 C 90 % 1014,2 hPa 0,0 mm 0,0 km/h (0 Bft) SW 225 0 min 0 UV-I 0 W/m 6,4 km/h (2 Bft)
29.08.2010 02:10 11,1 C 90 % 1014,0 hPa 0,0 mm 1,6 km/h (1 Bft) SW 225 0 min 0 UV-I 0 W/m 6,4 km/h (2 Bft)
29.08.2010 02:20 11,2 C 89 % 1013,9 hPa 0,0 mm 1,6 km/h (1 Bft) SW 225 0 min 0 UV-I 0 W/m 4,8 km/h (1 Bft)
29.08.2010 02:30 11,1 C 89 % 1013,8 hPa 0,0 mm 1,6 km/h (1 Bft) SW 225 0 min 0 UV-I 0 W/m 6,4 km/h (2 Bft)
29.08.2010 02:40 11,1 C 89 % 1013,6 hPa 0,0 mm 0,0 km/h (0 Bft) SW 225 0 min 0 UV-I 0 W/m 4,8 km/h (1 Bft)
29.08.2010 02:50 11,1 C 89 % 1013,6 hPa 0,0 mm 0,0 km/h (0 Bft) SW 225 0 min 0 UV-I 0 W/m 6,4 km/h (2 Bft)
29.08.2010 03:00 11,2 C 89 % 1013,6 hPa 0,0 mm 1,6 km/h (1 Bft) SW 225 0 min 0 UV-I 0 W/m 8,0 km/h (2 Bft)
29.08.2010 03:10 11,4 C 89 % 1013,5 hPa 0,0 mm 1,6 km/h (1 Bft) SW 225 0 min 0 UV-I 0 W/m 11,3 km/h (2 Bft)
29.08.2010 03:20 11,6 C 88 % 1013,4 hPa 0,0 mm 3,2 km/h (1 Bft) SW 225 0 min 0 UV-I 0 W/m 11,3 km/h (2 Bft)
29.08.2010 03:30 11,7 C 88 % 1013,3 hPa 0,3 mm 1,6 km/h (1 Bft) SW 225 0 min 0 UV-I 0 W/m 8,0 km/h (2 Bft)
29.08.2010 03:40 11,7 C 88 % 1013,4 hPa 0,5 mm 1,6 km/h (1 Bft) SW 225 0 min 0 UV-I 0 W/m 11,3 km/h (2 Bft)
29.08.2010 03:50 11,7 C 89 % 1013,1 hPa 0,3 mm 1,6 km/h (1 Bft) SW 225 0 min 0 UV-I 0 W/m 6,4 km/h (2 Bft)
29.08.2010 04:00 11,6 C 89 % 1013,0 hPa 0,0 mm 0,0 km/h (0 Bft) SW 225 0 min 0 UV-I 0 W/m 6,4 km/h (2 Bft)
29.08.2010 04:10 11,6 C 90 % 1013,0 hPa 0,0 mm 0,0 km/h (0 Bft) SW 225 0 min 0 UV-I 0 W/m 3,2 km/h (1 Bft)
29.08.2010 04:20 11,4 C 90 % 1012,9 hPa 0,0 mm 0,0 km/h (0 Bft) SW 225 0 min 0 UV-I 0 W/m 4,8 km/h (1 Bft)
29.08.2010 04:30 11,3 C 90 % 1012,8 hPa 0,0 mm 1,6 km/h (1 Bft) S-SW 202 0 min 0 UV-I 0 W/m 8,0 km/h (2 Bft)
29.08.2010 04:40 11,2 C 91 % 1012,8 hPa 0,0 mm 1,6 km/h (1 Bft) W 270 0 min 0 UV-I 0 W/m 8,0 km/h (2 Bft)
29.08.2010 04:50 11,2 C 91 % 1012,7 hPa 0,0 mm 1,6 km/h (1 Bft) W-SW 247 0 min 0 UV-I 0 W/m 8,0 km/h (2 Bft)
29.08.2010 05:00 11,2 C 91 % 1012,6 hPa 0,0 mm 1,6 km/h (1 Bft) W-SW 247 0 min 0 UV-I 0 W/m 6,4 km/h (2 Bft)
29.08.2010 05:10 11,2 C 91 % 1012,5 hPa 0,0 mm 1,6 km/h (1 Bft) SW 225 0 min 0 UV-I 0 W/m 6,4 km/h (2 Bft)
29.08.2010 05:20 11,3 C 91 % 1012,5 hPa 0,3 mm 1,6 km/h (1 Bft) SW 225 0 min 0 UV-I 0 W/m 6,4 km/h (2 Bft)
29.08.2010 05:30 11,3 C 91 % 1012,5 hPa 0,0 mm 1,6 km/h (1 Bft) W-SW 247 0 min 0 UV-I 0 W/m 6,4 km/h (2 Bft)
29.08.2010 05:40 11,3 C 90 % 1012,4 hPa 0,0 mm 1,6 km/h (1 Bft) W-SW 247 0 min 0 UV-I 0 W/m 9,7 km/h (2 Bft)
29.08.2010 05:50 11,3 C 90 % 1012,3 hPa 0,0 mm 1,6 km/h (1 Bft) S-SW 202 0 min 0 UV-I 0 W/m 8,0 km/h (2 Bft)
29.08.2010 06:00 11,3 C 90 % 1012,3 hPa 0,0 mm 1,6 km/h (1 Bft) S-SW 202 0 min 0 UV-I 0 W/m 14,5 km/h (3 Bft)
29.08.2010 06:10 11,3 C 90 % 1012,3 hPa 0,0 mm 4,8 km/h (1 Bft) W-SW 247 0 min 0 UV-I 0 W/m 16,1 km/h (3 Bft)
29.08.2010 06:20 11,3 C 90 % 1012,2 hPa 0,0 mm 4,8 km/h (1 Bft) W-SW 247 0 min 0 UV-I 0 W/m 16,1 km/h (3 Bft)
29.08.2010 06:30 11,3 C 90 % 1012,2 hPa 0,0 mm 4,8 km/h (1 Bft) W-SW 247 0 min 0 UV-I 0 W/m 19,3 km/h (3 Bft)
29.08.2010 06:40 11,3 C 90 % 1012,1 hPa 0,0 mm 3,2 km/h (1 Bft) W-SW 247 0 min 0 UV-I 0 W/m 14,5 km/h (3 Bft)
29.08.2010 06:50 11,3 C 90 % 1012,0 hPa 0,0 mm 3,2 km/h (1 Bft) SW 225 0 min 0 UV-I 0 W/m 12,9 km/h (3 Bft)
29.08.2010 07:00 11,3 C 90 % 1011,9 hPa 0,0 mm 3,2 km/h (1 Bft) W-SW 247 0 min 0 UV-I 7 W/m 11,3 km/h (2 Bft)
29.08.2010 07:10 11,4 C 90 % 1011,9 hPa 0,0 mm 3,2 km/h (1 Bft) SW 225 0 min 0 UV-I 16 W/m 11,3 km/h (2 Bft)
29.08.2010 07:20 11,4 C 90 % 1011,9 hPa 0,0 mm 3,2 km/h (1 Bft) W-SW 247 0 min 0 UV-I 21 W/m 14,5 km/h (3 Bft)
29.08.2010 07:30 11,5 C 90 % 1011,9 hPa 0,0 mm 4,8 km/h (1 Bft) W-SW 247 0 min 0 UV-I 25 W/m 16,1 km/h (3 Bft)
29.08.2010 07:40 11,6 C 90 % 1011,8 hPa 0,0 mm 6,4 km/h (2 Bft) W-SW 247 0 min 0 UV-I 25 W/m 19,3 km/h (3 Bft)
29.08.2010 07:50 11,6 C 90 % 1011,8 hPa 0,0 mm 6,4 km/h (2 Bft) W 270 0 min 0 UV-I 21 W/m 14,5 km/h (3 Bft)
29.08.2010 08:00 11,6 C 90 % 1011,8 hPa 0,0 mm 6,4 km/h (2 Bft) W 270 0 min 0 UV-I 44 W/m 19,3 km/h (3 Bft)
29.08.2010 08:10 11,7 C 90 % 1011,8 hPa 0,0 mm 6,4 km/h (2 Bft) W 270 0 min 0 UV-I 53 W/m 19,3 km/h (3 Bft)
29.08.2010 08:20 11,8 C 90 % 1011,8 hPa 0,0 mm 4,8 km/h (1 Bft) W 270 0 min 0 UV-I 42 W/m 16,1 km/h (3 Bft)
29.08.2010 08:30 11,9 C 90 % 1011,8 hPa 0,0 mm 6,4 km/h (2 Bft) W 270 0 min 1 UV-I 56 W/m 16,1 km/h (3 Bft)
29.08.2010 08:40 11,9 C 90 % 1011,6 hPa 0,0 mm 3,2 km/h (1 Bft) W-SW 247 0 min 1 UV-I 69 W/m 14,5 km/h (3 Bft)
29.08.2010 08:50 12,1 C 90 % 1011,6 hPa 0,3 mm 4,8 km/h (1 Bft) W 270 0 min 1 UV-I 116 W/m 17,7 km/h (3 Bft)
29.08.2010 09:00 12,4 C 90 % 1011,5 hPa 0,0 mm 4,8 km/h (1 Bft) SW 225 0 min 1 UV-I 120 W/m 16,1 km/h (3 Bft)
29.08.2010 09:10 12,5 C 89 % 1011,4 hPa 0,0 mm 3,2 km/h (1 Bft) W 270 0 min 1 UV-I 62 W/m 14,5 km/h (3 Bft)
29.08.2010 09:20 12,6 C 89 % 1011,5 hPa 0,0 mm 6,4 km/h (2 Bft) W-SW 247 0 min 1 UV-I 102 W/m 20,9 km/h (4 Bft)
29.08.2010 09:30 12,7 C 88 % 1011,5 hPa 0,0 mm 4,8 km/h (1 Bft) W-SW 247 0 min 1 UV-I 163 W/m 17,7 km/h (3 Bft)
29.08.2010 09:40 12,8 C 88 % 1011,5 hPa 0,0 mm 6,4 km/h (2 Bft) W 270 0 min 1 UV-I 74 W/m 19,3 km/h (3 Bft)
29.08.2010 09:50 12,9 C 87 % 1011,5 hPa 0,0 mm 8,0 km/h (2 Bft) W-SW 247 0 min 1 UV-I 127 W/m 25,7 km/h (4 Bft)
29.08.2010 10:00 13,2 C 86 % 1011,5 hPa 0,0 mm 6,4 km/h (2 Bft) W 270 0 min 1 UV-I 220 W/m 17,7 km/h (3 Bft)
29.08.2010 10:10 13,3 C 86 % 1011,5 hPa 0,0 mm 6,4 km/h (2 Bft) W 270 0 min 1 UV-I 163 W/m 20,9 km/h (4 Bft)
29.08.2010 10:20 13,4 C 85 % 1011,5 hPa 0,0 mm 8,0 km/h (2 Bft) W-SW 247 0 min 1 UV-I 160 W/m 20,9 km/h (4 Bft)
29.08.2010 10:30 13,5 C 84 % 1011,5 hPa 0,0 mm 11,3 km/h (2 Bft) W 270 0 min 1 UV-I 116 W/m 27,4 km/h (4 Bft)
29.08.2010 10:40 13,5 C 83 % 1011,4 hPa 0,0 mm 8,0 km/h (2 Bft) W 270 0 min 2 UV-I 221 W/m 20,9 km/h (4 Bft)
29.08.2010 10:50 13,9 C 82 % 1011,4 hPa 0,0 mm 8,0 km/h (2 Bft) W 270 0 min 3 UV-I 318 W/m 20,9 km/h (4 Bft)
29.08.2010 11:00 14,2 C 81 % 1011,3 hPa 0,0 mm 11,3 km/h (2 Bft) W 270 10 min 3 UV-I 499 W/m 24,1 km/h (4 Bft)
29.08.2010 11:10 14,6 C 80 % 1011,1 hPa 0,0 mm 6,4 km/h (2 Bft) W 270 10 min 2 UV-I 445 W/m 16,1 km/h (3 Bft)
29.08.2010 11:20 14,4 C 81 % 1011,1 hPa 0,0 mm 8,0 km/h (2 Bft) W 270 0 min 2 UV-I 316 W/m 20,9 km/h (4 Bft)
29.08.2010 11:30 14,7 C 78 % 1011,1 hPa 0,0 mm 8,0 km/h (2 Bft) W-SW 247 10 min 3 UV-I 404 W/m 22,5 km/h (4 Bft)
29.08.2010 11:40 15,1 C 77 % 1011,1 hPa 0,0 mm 8,0 km/h (2 Bft) W 270 10 min 3 UV-I 406 W/m 19,3 km/h (3 Bft)
29.08.2010 11:50 15,2 C 76 % 1011,0 hPa 0,0 mm 8,0 km/h (2 Bft) W 270 10 min 4 UV-I 635 W/m 24,1 km/h (4 Bft)
29.08.2010 12:00 15,6 C 74 % 1011,0 hPa 0,0 mm 9,7 km/h (2 Bft) W 270 10 min 4 UV-I 605 W/m 24,1 km/h (4 Bft)
29.08.2010 12:10 15,7 C 72 % 1010,8 hPa 0,0 mm 8,0 km/h (2 Bft) W 270 10 min 4 UV-I 468 W/m 22,5 km/h (4 Bft)
29.08.2010 12:20 15,6 C 74 % 1010,8 hPa 0,0 mm 6,4 km/h (2 Bft) W 270 10 min 3 UV-I 466 W/m 17,7 km/h (3 Bft)
29.08.2010 12:30 15,8 C 72 % 1010,7 hPa 0,0 mm 8,0 km/h (2 Bft) W 270 0 min 3 UV-I 316 W/m 22,5 km/h (4 Bft)
29.08.2010 12:40 15,7 C 72 % 1010,6 hPa 0,0 mm 8,0 km/h (2 Bft) W-SW 247 0 min 3 UV-I 371 W/m 19,3 km/h (3 Bft)
29.08.2010 12:50 15,7 C 74 % 1010,7 hPa 0,0 mm 8,0 km/h (2 Bft) W 270 0 min 3 UV-I 290 W/m 22,5 km/h (4 Bft)
29.08.2010 13:00 15,2 C 80 % 1010,6 hPa 0,0 mm 9,7 km/h (2 Bft) W 270 0 min 1 UV-I 142 W/m 25,7 km/h (4 Bft)
29.08.2010 13:10 14,4 C 82 % 1010,6 hPa 0,0 mm 6,4 km/h (2 Bft) W 270 0 min 1 UV-I 160 W/m 17,7 km/h (3 Bft)
29.08.2010 13:20 14,4 C 82 % 1010,6 hPa 0,0 mm 8,0 km/h (2 Bft) W 270 0 min 2 UV-I 171 W/m 27,4 km/h (4 Bft)
29.08.2010 13:30 14,3 C 81 % 1010,5 hPa 0,0 mm 8,0 km/h (2 Bft) W 270 0 min 3 UV-I 329 W/m 22,5 km/h (4 Bft)
29.08.2010 13:40 14,7 C 81 % 1010,5 hPa 0,0 mm 6,4 km/h (2 Bft) W-SW 247 0 min 3 UV-I 336 W/m 19,3 km/h (3 Bft)
29.08.2010 13:50 15,0 C 80 % 1010,5 hPa 0,0 mm 8,0 km/h (2 Bft) W 270 0 min 2 UV-I 274 W/m 24,1 km/h (4 Bft)
29.08.2010 14:00 14,7 C 81 % 1010,5 hPa 0,0 mm 9,7 km/h (2 Bft) W 270 0 min 2 UV-I 192 W/m 22,5 km/h (4 Bft)
29.08.2010 14:10 14,6 C 81 % 1010,3 hPa 0,0 mm 6,4 km/h (2 Bft) W 270 0 min 2 UV-I 197 W/m 20,9 km/h (4 Bft)
29.08.2010 14:20 14,5 C 82 % 1010,3 hPa 0,0 mm 6,4 km/h (2 Bft) W 270 0 min 1 UV-I 146 W/m 17,7 km/h (3 Bft)
29.08.2010 14:30 14,5 C 83 % 1010,1 hPa 0,0 mm 6,4 km/h (2 Bft) S-SW 202 0 min 2 UV-I 190 W/m 17,7 km/h (3 Bft)
29.08.2010 14:40 14,4 C 82 % 1010,0 hPa 0,0 mm 8,0 km/h (2 Bft) W 270 0 min 2 UV-I 174 W/m 20,9 km/h (4 Bft)
29.08.2010 14:50 14,3 C 83 % 1009,9 hPa 0,3 mm 8,0 km/h (2 Bft) W-SW 247 0 min 1 UV-I 86 W/m 20,9 km/h (4 Bft)
29.08.2010 15:00 13,9 C 86 % 1009,8 hPa 0,3 mm 4,8 km/h (1 Bft) W-SW 247 0 min 1 UV-I 113 W/m 16,1 km/h (3 Bft)
29.08.2010 15:10 13,6 C 87 % 1009,4 hPa 0,0 mm 4,8 km/h (1 Bft) W-SW 247 0 min 1 UV-I 130 W/m 16,1 km/h (3 Bft)
29.08.2010 15:20 13,4 C 87 % 1009,3 hPa 0,0 mm 4,8 km/h (1 Bft) W-SW 247 0 min 1 UV-I 95 W/m 14,5 km/h (3 Bft)
29.08.2010 15:30 13,3 C 88 % 1009,2 hPa 0,3 mm 3,2 km/h (1 Bft) W 270 0 min 1 UV-I 83 W/m 8,0 km/h (2 Bft)
29.08.2010 15:40 13,2 C 89 % 1009,1 hPa 0,3 mm 1,6 km/h (1 Bft) W-SW 247 0 min 1 UV-I 70 W/m 8,0 km/h (2 Bft)
29.08.2010 15:50 13,2 C 89 % 1009,0 hPa 0,5 mm 1,6 km/h (1 Bft) W-SW 247 0 min 1 UV-I 70 W/m 8,0 km/h (2 Bft)
29.08.2010 16:00 13,3 C 90 % 1008,8 hPa 0,0 mm 0,0 km/h (0 Bft) W-SW 247 0 min 1 UV-I 121 W/m 6,4 km/h (2 Bft)
29.08.2010 16:10 13,4 C 90 % 1008,5 hPa 0,0 mm 0,0 km/h (0 Bft) W 270 0 min 1 UV-I 77 W/m 4,8 km/h (1 Bft)
29.08.2010 16:20 13,4 C 90 % 1008,4 hPa 0,0 mm 0,0 km/h (0 Bft) W-SW 247 0 min 0 UV-I 44 W/m 3,2 km/h (1 Bft)
29.08.2010 16:30 13,4 C 91 % 1008,4 hPa 0,5 mm 1,6 km/h (1 Bft) W 270 0 min 0 UV-I 40 W/m 8,0 km/h (2 Bft)
29.08.2010 16:40 13,4 C 91 % 1008,4 hPa 1,0 mm 6,4 km/h (2 Bft) W-SW 247 0 min 0 UV-I 26 W/m 29,0 km/h (5 Bft)
29.08.2010 16:50 13,1 C 90 % 1008,2 hPa 0,3 mm 8,0 km/h (2 Bft) W-SW 247 0 min 0 UV-I 46 W/m 29,0 km/h (5 Bft)
29.08.2010 17:00 12,7 C 90 % 1008,1 hPa 0,0 mm 3,2 km/h (1 Bft) S-SW 202 0 min 1 UV-I 58 W/m 16,1 km/h (3 Bft)
29.08.2010 17:10 12,6 C 90 % 1008,0 hPa 0,0 mm 3,2 km/h (1 Bft) W-SW 247 0 min 1 UV-I 76 W/m 11,3 km/h (2 Bft)
29.08.2010 17:20 12,7 C 90 % 1007,8 hPa 0,0 mm 3,2 km/h (1 Bft) SW 225 0 min 1 UV-I 77 W/m 11,3 km/h (2 Bft)
29.08.2010 17:30 12,8 C 90 % 1007,7 hPa 0,0 mm 3,2 km/h (1 Bft) SW 225 0 min 0 UV-I 51 W/m 9,7 km/h (2 Bft)
29.08.2010 17:40 12,9 C 90 % 1007,4 hPa 0,0 mm 1,6 km/h (1 Bft) S-SW 202 0 min 0 UV-I 53 W/m 9,7 km/h (2 Bft)
29.08.2010 17:50 13,0 C 90 % 1007,3 hPa 0,0 mm 3,2 km/h (1 Bft) SW 225 0 min 1 UV-I 77 W/m 11,3 km/h (2 Bft)
29.08.2010 18:00 13,1 C 89 % 1007,0 hPa 0,0 mm 3,2 km/h (1 Bft) S-SW 202 0 min 1 UV-I 67 W/m 11,3 km/h (2 Bft)
29.08.2010 18:10 13,1 C 89 % 1006,8 hPa 0,0 mm 3,2 km/h (1 Bft) S-SW 202 0 min 0 UV-I 63 W/m 8,0 km/h (2 Bft)
29.08.2010 18:20 13,1 C 89 % 1006,7 hPa 0,0 mm 2,7 km/h (1 Bft) S-SW 202 0 min 0 UV-I 38 W/m 9,7 km/h (2 Bft)
29.08.2010 18:30 13,2 C 89 % 1006,5 hPa 0,0 mm 1,6 km/h (1 Bft) S-SW 202 0 min 0 UV-I 49 W/m 8,0 km/h (2 Bft)
29.08.2010 18:40 13,2 C 88 % 1006,2 hPa 0,0 mm 3,3 km/h (1 Bft) S 191 0 min 0 UV-I 41 W/m 8,0 km/h (2 Bft)
29.08.2010 18:50 13,3 C 88 % 1006,1 hPa 0,0 mm 1,2 km/h (1 Bft) S-SW 196 0 min 0 UV-I 33 W/m 4,8 km/h (1 Bft)
29.08.2010 19:00 13,3 C 88 % 1005,9 hPa 0,0 mm 1,2 km/h (1 Bft) S-SW 192 0 min 0 UV-I 22 W/m 4,8 km/h (1 Bft)
29.08.2010 19:10 13,2 C 88 % 1005,8 hPa 0,0 mm 1,5 km/h (1 Bft) SW 225 0 min 0 UV-I 27 W/m 6,4 km/h (2 Bft)
29.08.2010 19:20 13,2 C 88 % 1005,8 hPa 0,0 mm 1,7 km/h (1 Bft) S-SW 199 0 min 0 UV-I 18 W/m 8,0 km/h (2 Bft)
29.08.2010 19:30 13,2 C 88 % 1005,6 hPa 0,0 mm 2,8 km/h (1 Bft) W-SW 257 0 min 0 UV-I 9 W/m 11,3 km/h (2 Bft)
29.08.2010 19:40 13,2 C 88 % 1005,4 hPa 0,0 mm 3,7 km/h (1 Bft) S-SW 206 0 min 0 UV-I 8 W/m 11,3 km/h (2 Bft)
29.08.2010 19:50 13,1 C 88 % 1005,2 hPa 0,0 mm 3,8 km/h (1 Bft) S-SW 210 0 min 0 UV-I 6 W/m 16,1 km/h (3 Bft)
29.08.2010 20:00 13,1 C 88 % 1004,9 hPa 0,0 mm 4,0 km/h (1 Bft) SW 215 0 min 0 UV-I 0 W/m 11,3 km/h (2 Bft)
29.08.2010 20:10 13,1 C 87 % 1004,6 hPa 0,0 mm 5,6 km/h (1 Bft) S-SW 211 0 min 0 UV-I 0 W/m 17,7 km/h (3 Bft)
29.08.2010 20:20 13,0 C 86 % 1004,5 hPa 0,0 mm 6,8 km/h (2 Bft) SW 214 0 min 0 UV-I 0 W/m 20,9 km/h (4 Bft)
29.08.2010 20:30 12,9 C 85 % 1004,4 hPa 0,0 mm 6,2 km/h (2 Bft) SW 233 0 min 0 UV-I 0 W/m 27,4 km/h (4 Bft)
29.08.2010 20:40 12,9 C 85 % 1004,3 hPa 0,0 mm 5,1 km/h (1 Bft) S-SW 201 0 min 0 UV-I 0 W/m 24,1 km/h (4 Bft)
29.08.2010 20:50 12,9 C 84 % 1004,1 hPa 0,0 mm 5,2 km/h (1 Bft) W 279 0 min 0 UV-I 0 W/m 17,7 km/h (3 Bft)
29.08.2010 21:00 12,4 C 81 % 1005,3 hPa 0,5 mm 12,2 km/h (2 Bft) NW 324 0 min 0 UV-I 0 W/m 40,2 km/h (6 Bft)
29.08.2010 21:10 11,5 C 82 % 1005,4 hPa 0,3 mm 10,3 km/h (2 Bft) W 272 0 min 0 UV-I 0 W/m 25,7 km/h (4 Bft)
29.08.2010 21:20 11,0 C 83 % 1005,7 hPa 0,0 mm 3,6 km/h (1 Bft) NW 306 0 min 0 UV-I 0 W/m 11,3 km/h (2 Bft)
29.08.2010 21:30 10,7 C 84 % 1005,6 hPa 0,3 mm 3,3 km/h (1 Bft) W-NW 296 0 min 0 UV-I 0 W/m 9,7 km/h (2 Bft)
29.08.2010 21:40 10,4 C 85 % 1006,0 hPa 0,0 mm 3,3 km/h (1 Bft) W-SW 248 0 min 0 UV-I 0 W/m 11,3 km/h (2 Bft)
29.08.2010 21:50 10,3 C 86 % 1005,5 hPa 0,3 mm 1,8 km/h (1 Bft) S-SW 200 0 min 0 UV-I 0 W/m 6,4 km/h (2 Bft)
29.08.2010 22:00 10,1 C 86 % 1004,9 hPa 0,0 mm 1,6 km/h (1 Bft) S 190 0 min 0 UV-I 0 W/m 6,4 km/h (2 Bft)
29.08.2010 22:10 9,8 C 87 % 1004,6 hPa 0,0 mm 2,5 km/h (1 Bft) S-SO 155 0 min 0 UV-I 0 W/m 8,0 km/h (2 Bft)
29.08.2010 22:20 9,6 C 87 % 1004,0 hPa 0,0 mm 2,2 km/h (1 Bft) S-SW 213 0 min 0 UV-I 0 W/m 11,3 km/h (2 Bft)
29.08.2010 22:30 9,5 C 88 % 1004,9 hPa 0,3 mm 1,6 km/h (1 Bft) S-SW 198 0 min 0 UV-I 0 W/m 9,7 km/h (2 Bft)
29.08.2010 22:40 9,3 C 88 % 1004,5 hPa 0,0 mm 1,3 km/h (1 Bft) SW 234 0 min 0 UV-I 0 W/m 8,0 km/h (2 Bft)
29.08.2010 22:50 9,2 C 88 % 1004,5 hPa 0,0 mm 1,1 km/h (1 Bft) W-SW 249 0 min 0 UV-I 0 W/m 6,4 km/h (2 Bft)
29.08.2010 23:00 9,1 C 88 % 1004,4 hPa 0,0 mm 0,5 km/h (0 Bft) SW 234 0 min 0 UV-I 0 W/m 6,4 km/h (2 Bft)
29.08.2010 23:10 9,1 C 88 % 1003,9 hPa 0,0 mm 0,2 km/h (0 Bft) SW 234 0 min 0 UV-I 0 W/m 3,2 km/h (1 Bft)
29.08.2010 23:20 9,0 C 88 % 1003,7 hPa 0,0 mm 0,2 km/h (0 Bft) SW 233 0 min 0 UV-I 0 W/m 4,8 km/h (1 Bft)
29.08.2010 23:30 8,9 C 89 % 1003,6 hPa 0,0 mm 0,7 km/h (0 Bft) W-SW 244 0 min 0 UV-I 0 W/m 6,4 km/h (2 Bft)
29.08.2010 23:40 8,8 C 89 % 1003,3 hPa 0,0 mm 1,1 km/h (1 Bft) W-SW 237 0 min 0 UV-I 0 W/m 6,4 km/h (2 Bft)
29.08.2010 23:50 8,7 C 88 % 1003,1 hPa 0,0 mm 0,6 km/h (0 Bft) S-SW 213 0 min 0 UV-I 0 W/m 4,8 km/h (1 Bft)
_ Min-Zeit 23:50 12:10 23:50 - 00:00 - - - - - 00:10
Minimum _ 8,7 C 72 % 1003,1 hPa - 0,0 km/h (0 Bft) - - - - - 1,6 km/h (1 Bft)
_ Max-Zeit 12:10 04:40 00:00 16:40 21:00 - - 11:00 11:50 11:50 21:00
Maximum _ 15,8 C 91 % 1015,2 hPa 1,0 mm 12,2 km/h
NW (2 Bft)
- - 10 min 4 UV-I 635 W/m 40,2 km/h
W (6 Bft)
Durchschnitt _ 12,3 C 87 % 1010,0 hPa #6,4 mm 3,8 km/h (1 Bft) W - #1:20 h 2 UV-I 149 W/m 13,2 km/h (3 Bft)